Flight Track Log - Related Links

Times and Time Zones

All times are in EDT time to prevent confusion due to time zone crossing. See the UAL1020 flight status page for this flight to view local times or setup timezone preferences in your user account.

Time Position Orientation Groundspeed Altitude Reporting Facility
EDT Latitude Longitude Course Direction KTS MPH feet Rate Location/Type
Sat 05:23:46 PM 29.9953 -95.3661 151° Southeast 179 206 1,100  Level Houston Center
Sat 05:24:35 PM 30.0056 -95.4083 286° West 236 272 2,100 1,630 Climbing Houston Center
Sat 05:25:07 PM 29.9731 -95.4211 199° South 258 297 3,300 1,213 Climbing Houston Center
Sat 05:26:00 PM 29.6772 -95.1403 150° Southeast  Level FlightAware Approximate
Sat 05:26:09 PM 29.9183 -95.3619 137° Southeast 282 325 4,000  Level Houston Center
Sat 05:27:00 PM 29.5759 -95.0728 150° Southeast  Level FlightAware Approximate
Sat 05:27:11 PM 29.8950 -95.2761 107° East 282 325 6,100  Level Houston Center
Sat 05:28:00 PM 29.4746 -95.0053 150° Southeast  Level FlightAware Approximate
Sat 05:28:13 PM 29.8717 -95.1850 106° East 292 336 8,900  Level Houston Center
Sat 05:29:00 PM 29.3719 -94.9408 151° Southeast  Level FlightAware Approximate
Sat 05:29:14 PM 29.8269 -95.1031 122° Southeast 318 366 9,900  Level Houston Center
Sat 05:30:16 PM 29.7356 -95.0642 160° South 345 397 11,500 1,645 Climbing Houston Center
Sat 05:31:18 PM 29.6233 -95.0161 160° South 417 480 13,300 2,177 Climbing Houston Center
Sat 05:32:20 PM 29.5075 -94.9681 160° South 432 497 16,000 2,468 Climbing Houston Center
Sat 05:33:22 PM 29.3911 -94.9186 160° South 439 505 18,400 2,323 Climbing Houston Center
Sat 05:34:24 PM 29.2575 -94.8400 153° Southeast 452 520 20,800 2,081 Climbing Houston Center
Sat 05:35:26 PM 29.1892 -94.7164 122° Southeast 459 528 22,700 1,694 Climbing Houston Center
Sat 05:36:28 PM 29.1222 -94.5900 121° Southeast 465 535 24,300 1,500 Climbing Houston Center
Sat 05:37:30 PM 29.0542 -94.4614 121° Southeast 472 543 25,800 1,694 Climbing Houston Center
Sat 05:38:32 PM 28.9697 -94.3425 129° Southeast 479 551 27,800 1,805 Climbing Houston Center
Sat 05:39:33 PM 28.8853 -94.2269 130° Southeast 477 549 29,500 1,561 Climbing Houston Center
Sat 05:40:35 PM 28.7822 -94.0878 130° Southeast 478 550 31,000 726 Climbing Houston Center
Sat 05:41:37 PM 28.6992 -93.9736 130° Southeast 471 542 31,000 677 Level Houston Center
Sat 05:42:39 PM 28.6164 -93.8592 129° Southeast 469 540 32,400 1,403 Climbing Houston Center
Sat 05:43:41 PM 28.5328 -93.7486 131° Southeast 464 534 33,900 1,268 Climbing Houston Center
Sat 05:44:42 PM 28.4514 -93.6381 130° Southeast 457 526 35,000 537 Climbing Houston Center
Sat 05:45:44 PM 28.3689 -93.5267 130° Southeast 458 527 35,000  Level Houston Center
Sat 05:46:46 PM 28.2867 -93.4153 130° Southeast 461 531 35,000  Level Houston Center
Sat 05:47:48 PM 28.1881 -93.2833 130° Southeast 459 528 35,000  Level Houston Center
Sat 05:48:49 PM 28.1103 -93.1800 130° Southeast 458 527 35,000  Level Houston Center
Sat 05:49:51 PM 28.0281 -93.0700 130° Southeast 458 527 35,000  Level Houston Center
Sat 05:50:53 PM 27.9464 -92.9592 130° Southeast 458 527 35,000  Level Houston Center
Sat 05:51:54 PM 27.8636 -92.8508 131° Southeast 457 526 35,000  Level Houston Center
Sat 05:52:56 PM 27.7633 -92.7192 131° Southeast 460 529 35,000 194 Level Houston Center
Sat 05:53:58 PM 27.6803 -92.6081 130° Southeast 462 532 35,400 976 Climbing Houston Center
Sat 05:54:59 PM 27.5989 -92.5053 132° Southeast 444 511 37,000 780 Climbing Houston Center
Sat 05:56:01 PM 27.5167 -92.3933 130° Southeast 437 503 37,000 -48 Level Houston Center
Sat 05:57:03 PM 27.4444 -92.2953 130° Southeast 437 503 36,900  Descending Houston Center
Sat 05:58:04 PM 27.3569 -92.1889 133° Southeast 434 499 37,000 49 Climbing Houston Center
Sat 05:59:06 PM 27.2850 -92.0936 130° Southeast 432 497 37,000  Level Houston Center
Sat 06:00:07 PM 27.1911 -91.9703 131° Southeast 433 498 37,000  Level Houston Center
Sat 06:02:00 PM 27.0270 -91.8213 144° Southeast  Level FlightAware Approximate
Sat 06:09:00 PM 26.3832 -91.3095 145° Southeast  Level FlightAware Approximate
Sat 06:10:00 PM 26.2910 -91.2368 145° Southeast  Level FlightAware Approximate
Sat 06:11:00 PM 26.1989 -91.1642 145° Southeast  Level FlightAware Approximate
Sat 06:12:00 PM 26.1068 -91.0917 145° Southeast  Level FlightAware Approximate
Sat 06:13:00 PM 26.0146 -91.0193 145° Southeast  Level FlightAware Approximate
Sat 06:14:00 PM 25.9223 -90.9471 145° Southeast  Level FlightAware Approximate
Sat 06:15:00 PM 25.8301 -90.8749 145° Southeast  Level FlightAware Approximate
Sat 06:16:00 PM 25.7378 -90.8029 145° Southeast  Level FlightAware Approximate
Sat 06:17:00 PM 25.6455 -90.7310 145° Southeast  Level FlightAware Approximate
Sat 06:18:00 PM 25.5531 -90.6592 145° Southeast  Level FlightAware Approximate
Sat 06:19:00 PM 25.4607 -90.5875 145° Southeast  Level FlightAware Approximate
Sat 06:20:00 PM 25.3682 -90.5159 145° Southeast  Level FlightAware Approximate
Sat 06:21:00 PM 25.2758 -90.4444 145° Southeast  Level FlightAware Approximate
Sat 06:22:00 PM 25.1833 -90.3730 145° Southeast  Level FlightAware Approximate
Sat 06:23:00 PM 25.0907 -90.3018 145° Southeast  Level FlightAware Approximate
Sat 06:24:00 PM 24.9981 -90.2306 145° Southeast  Level FlightAware Approximate
Sat 06:25:00 PM 24.9055 -90.1596 145° Southeast  Level FlightAware Approximate
Sat 06:26:00 PM 24.8129 -90.0886 145° Southeast  Level FlightAware Approximate
Sat 06:27:00 PM 24.7202 -90.0178 145° Southeast  Level FlightAware Approximate
Sat 06:28:00 PM 24.6275 -89.9471 145° Southeast  Level FlightAware Approximate
Sat 06:29:00 PM 24.5347 -89.8764 145° Southeast  Level FlightAware Approximate
Sat 06:30:00 PM 24.4434 -89.8040 146° Southeast  Level FlightAware Approximate
Sat 06:31:00 PM 24.3495 -89.7353 146° Southeast  Level FlightAware Approximate
Sat 06:32:00 PM 24.2557 -89.6666 146° Southeast  Level FlightAware Approximate
Sat 06:33:00 PM 24.1618 -89.5981 146° Southeast  Level FlightAware Approximate
Sat 06:34:00 PM 24.0678 -89.5296 146° Southeast  Level FlightAware Approximate
Sat 06:35:00 PM 23.9755 -89.4586 145° Southeast  Level FlightAware Approximate
Sat 06:36:00 PM 23.8836 -89.3871 145° Southeast  Level FlightAware Approximate
Sat 06:37:00 PM 23.7916 -89.3156 145° Southeast  Level FlightAware Approximate
Sat 06:38:00 PM 23.6990 -89.2453 146° Southeast  Level FlightAware Approximate
Sat 06:39:00 PM 23.6059 -89.1758 146° Southeast  Level FlightAware Approximate
Sat 06:40:00 PM 23.5127 -89.1065 146° Southeast  Level FlightAware Approximate
Sat 06:41:00 PM 23.4195 -89.0372 146° Southeast  Level FlightAware Approximate
Sat 06:42:00 PM 23.3262 -88.9680 146° Southeast  Level FlightAware Approximate
Sat 06:43:00 PM 23.2329 -88.8990 146° Southeast  Level FlightAware Approximate
Sat 06:44:00 PM 23.1395 -88.8302 146° Southeast  Level FlightAware Approximate
Sat 06:45:00 PM 23.0457 -88.7620 146° Southeast  Level FlightAware Approximate
Sat 06:46:00 PM 22.9527 -88.6928 144° Southeast  Level FlightAware Approximate
Sat 06:47:00 PM 22.8610 -88.6215 144° Southeast  Level FlightAware Approximate
Sat 06:48:00 PM 22.7693 -88.5501 144° Southeast  Level FlightAware Approximate
Sat 06:49:00 PM 22.6774 -88.4792 147° Southeast  Level FlightAware Approximate
Sat 06:50:00 PM 22.5823 -88.4134 147° Southeast  Level FlightAware Approximate
Sat 06:51:00 PM 22.4873 -88.3476 147° Southeast  Level FlightAware Approximate
Sat 06:52:00 PM 22.3941 -88.2789 145° Southeast  Level FlightAware Approximate
Sat 06:53:00 PM 22.3014 -88.2093 145° Southeast  Level FlightAware Approximate
Sat 06:54:00 PM 22.2066 -88.1433 148° Southeast  Level FlightAware Approximate
Sat 06:55:00 PM 22.1207 -88.0658 133° Southeast  Level FlightAware Approximate
Sat 06:56:00 PM 22.0441 -87.9764 133° Southeast  Level FlightAware Approximate
Sat 06:57:00 PM 21.9675 -87.8871 133° Southeast  Level FlightAware Approximate
Sat 06:58:00 PM 21.8876 -87.8013 136° Southeast  Level FlightAware Approximate
Sat 06:59:00 PM 21.8067 -87.7166 136° Southeast  Level FlightAware Approximate
Sat 07:00:00 PM 21.7258 -87.6319 136° Southeast  Level FlightAware Approximate
Sat 07:01:00 PM 21.6448 -87.5474 136° Southeast  Level FlightAware Approximate
Sat 07:02:00 PM 21.5652 -87.4615 132° Southeast  Level FlightAware Approximate
Sat 07:03:00 PM 21.4889 -87.3723 137° Southeast  Level FlightAware Approximate
Sat 07:04:00 PM 21.4094 -87.2863 134° Southeast  Level FlightAware Approximate
Sat 07:05:00 PM 21.3310 -87.1992 134° Southeast  Level FlightAware Approximate
Sat 07:06:00 PM 21.2492 -87.1159 137° Southeast  Level FlightAware Approximate
Sat 07:07:00 PM 21.1735 -87.0269 126° Southeast  Level FlightAware Approximate
Sat 07:08:00 PM 21.0928 -86.9428 137° Southeast  Level FlightAware Approximate
Sat 07:09:00 PM 21.0365 -86.8771 137° Southeast  Level Estimated
Sat 07:10:00 PM 21.0365 -86.8771 137° Southeast  Level Estimated

Login

Don't have an account? Register now (free) for customized features, flight alerts, and more!